createdAt,value
2023-01-13T00:00:17.525Z,6.00
2023-01-13T00:02:44.428Z,6.60
2023-01-13T00:05:11.409Z,5.80
2023-01-13T00:07:40.250Z,5.60
2023-01-13T00:10:11.247Z,5.70
2023-01-13T00:12:42.307Z,6.70
2023-01-13T00:15:10.673Z,5.70
2023-01-13T00:17:38.891Z,5.20
2023-01-13T00:20:06.918Z,5.40
2023-01-13T00:22:35.146Z,7.40
2023-01-13T00:25:04.260Z,5.70
2023-01-13T00:27:31.641Z,6.10
2023-01-13T00:29:58.709Z,6.40
2023-01-13T00:32:25.693Z,6.50
2023-01-13T00:34:52.697Z,4.90
2023-01-13T00:37:19.611Z,6.10
2023-01-13T00:39:46.521Z,6.00
2023-01-13T00:42:31.666Z,7.50
2023-01-13T00:44:58.535Z,8.60
2023-01-13T00:47:25.269Z,7.80
2023-01-13T00:49:52.094Z,9.00
2023-01-13T00:52:18.833Z,7.70
2023-01-13T00:54:45.664Z,9.30
2023-01-13T00:57:12.402Z,8.60
2023-01-13T00:59:39.133Z,8.60
2023-01-13T01:02:20.986Z,8.50
2023-01-13T01:04:47.879Z,7.90
2023-01-13T01:07:14.651Z,8.80
2023-01-13T01:09:41.440Z,10.20
2023-01-13T01:12:08.532Z,9.70
2023-01-13T01:14:35.455Z,8.00
2023-01-13T01:17:02.317Z,8.00
2023-01-13T01:19:29.165Z,8.30
2023-01-13T01:21:55.964Z,10.70
2023-01-13T01:24:22.898Z,8.60
2023-01-13T01:26:49.727Z,7.80
2023-01-13T01:29:16.635Z,7.70
2023-01-13T01:31:43.720Z,7.60
2023-01-13T01:34:10.898Z,6.30
2023-01-13T01:36:37.853Z,7.50
2023-01-13T01:39:04.883Z,6.60
2023-01-13T01:41:34.609Z,6.50
2023-01-13T01:44:38.856Z,8.10
2023-01-13T01:47:05.839Z,6.90
2023-01-13T01:49:35.414Z,6.70
2023-01-13T01:52:49.054Z,5.80
2023-01-13T01:55:23.075Z,9.60
2023-01-13T01:58:25.944Z,6.90
2023-01-13T02:00:52.876Z,6.00
2023-01-13T02:03:20.375Z,5.90
2023-01-13T02:05:47.143Z,6.50
2023-01-13T02:08:14.509Z,7.80
2023-01-13T02:10:45.843Z,6.50
2023-01-13T02:13:13.675Z,5.90
2023-01-13T02:15:55.600Z,9.10
2023-01-13T02:18:22.396Z,7.60
2023-01-13T02:21:13.848Z,6.40
2023-01-13T02:24:31.365Z,5.20
2023-01-13T02:27:00.933Z,5.50
2023-01-13T02:29:55.014Z,6.10
2023-01-13T02:32:35.638Z,8.60
2023-01-13T02:35:13.448Z,6.20
2023-01-13T02:37:44.199Z,6.60
2023-01-13T02:40:17.009Z,7.80
2023-01-13T02:43:09.472Z,8.10
2023-01-13T02:45:54.491Z,6.90
2023-01-13T02:48:24.078Z,11.50
2023-01-13T02:50:57.621Z,7.10
2023-01-13T02:53:34.623Z,8.30
2023-01-13T02:56:04.944Z,8.00
2023-01-13T02:58:33.244Z,8.80
2023-01-13T03:01:00.148Z,8.20
2023-01-13T03:03:27.069Z,7.40
2023-01-13T03:06:16.967Z,8.50
2023-01-13T03:08:51.389Z,6.40
2023-01-13T03:11:19.945Z,7.90
2023-01-13T03:14:04.757Z,8.40
2023-01-13T03:16:50.006Z,5.60
2023-01-13T03:19:50.399Z,8.00
2023-01-13T03:22:51.809Z,6.90
2023-01-13T03:25:21.457Z,6.10
2023-01-13T03:28:14.162Z,6.50
2023-01-13T03:30:48.477Z,5.60
2023-01-13T03:33:24.798Z,6.60
2023-01-13T03:35:59.122Z,6.90
2023-01-13T03:38:33.580Z,6.00
2023-01-13T03:41:06.081Z,5.40
2023-01-13T03:46:41.647Z,7.40
2023-01-13T03:49:13.372Z,5.50
2023-01-13T03:51:48.705Z,6.90
2023-01-13T03:54:19.616Z,5.90
2023-01-13T03:56:52.972Z,5.70
2023-01-13T03:59:25.650Z,5.60
2023-01-13T04:02:10.760Z,6.00
2023-01-13T04:04:52.127Z,5.60
2023-01-13T04:07:33.774Z,5.90
2023-01-13T04:10:04.665Z,6.70
2023-01-13T04:12:53.403Z,4.80
2023-01-13T04:15:27.462Z,4.80
2023-01-13T04:17:55.018Z,6.70
2023-01-13T04:20:22.107Z,5.50
2023-01-13T04:23:14.049Z,5.50
2023-01-13T04:25:41.968Z,6.50
2023-01-13T04:28:09.901Z,6.60
2023-01-13T04:30:37.746Z,5.30
2023-01-13T04:33:05.540Z,5.50
2023-01-13T04:35:33.507Z,5.50
2023-01-13T04:38:05.444Z,6.00
2023-01-13T04:40:32.336Z,6.10
2023-01-13T04:42:59.132Z,6.40
2023-01-13T04:45:26.099Z,6.20
2023-01-13T04:47:52.937Z,6.10
2023-01-13T04:50:20.078Z,7.80
2023-01-13T04:52:48.148Z,7.50
2023-01-13T04:55:16.098Z,8.90
2023-01-13T04:57:43.279Z,6.60
2023-01-13T05:00:13.026Z,7.90
2023-01-13T05:02:40.193Z,8.60
2023-01-13T05:05:08.047Z,7.40
2023-01-13T05:07:35.121Z,7.40
2023-01-13T05:10:02.035Z,9.30
2023-01-13T05:12:47.614Z,8.80
2023-01-13T05:15:45.200Z,8.20
2023-01-13T05:18:13.050Z,10.30
2023-01-13T05:20:39.937Z,8.50
2023-01-13T05:23:25.565Z,8.50
2023-01-13T05:25:52.610Z,9.70
2023-01-13T05:28:19.592Z,9.80
2023-01-13T05:30:49.482Z,13.80
2023-01-13T05:33:20.574Z,12.70
2023-01-13T05:35:48.494Z,10.00
2023-01-13T05:38:16.487Z,11.60
2023-01-13T05:41:04.590Z,11.40
2023-01-13T05:43:33.037Z,10.80
2023-01-13T05:46:01.526Z,10.80
2023-01-13T05:48:33.501Z,10.50
2023-01-13T05:51:00.982Z,9.40
2023-01-13T05:53:28.060Z,8.30
2023-01-13T05:55:56.334Z,8.50
2023-01-13T05:58:25.271Z,8.00
2023-01-13T06:00:52.980Z,7.80
2023-01-13T06:03:20.404Z,10.30
2023-01-13T06:05:48.042Z,21.90
2023-01-13T06:08:15.555Z,10.10
2023-01-13T06:10:42.385Z,8.10
2023-01-13T06:13:09.353Z,10.50
2023-01-13T06:15:36.385Z,9.90
2023-01-13T06:18:06.083Z,15.60
2023-01-13T06:20:33.106Z,12.80
2023-01-13T06:23:01.185Z,9.70
2023-01-13T06:25:53.874Z,11.90
2023-01-13T06:28:20.704Z,10.50
2023-01-13T06:30:53.192Z,12.60
2023-01-13T06:36:00.211Z,9.00
2023-01-13T06:38:30.822Z,10.60
2023-01-13T06:40:57.746Z,10.60
2023-01-13T06:43:24.701Z,12.80
2023-01-13T06:45:55.337Z,14.70
2023-01-13T06:48:25.491Z,13.20
2023-01-13T06:50:52.311Z,11.30
2023-01-13T06:53:19.907Z,13.60
2023-01-13T06:55:47.084Z,9.50
2023-01-13T06:58:13.949Z,10.70
2023-01-13T07:00:40.945Z,12.40
2023-01-13T07:03:14.117Z,13.50
2023-01-13T07:05:43.088Z,13.70
2023-01-13T07:08:10.943Z,10.80
2023-01-13T07:10:38.280Z,10.80
2023-01-13T07:13:24.491Z,11.80
2023-01-13T07:16:01.107Z,10.00
2023-01-13T07:18:31.600Z,10.40
2023-01-13T07:21:00.630Z,11.70
2023-01-13T07:23:29.036Z,16.40
2023-01-13T07:25:57.353Z,16.10
2023-01-13T07:28:25.494Z,13.00
2023-01-13T07:31:04.652Z,11.10
2023-01-13T07:33:33.402Z,11.00
2023-01-13T07:36:02.925Z,11.10
2023-01-13T07:38:30.778Z,11.40
2023-01-13T07:41:24.442Z,10.00
2023-01-13T07:43:56.622Z,10.50
2023-01-13T07:46:23.452Z,9.10
2023-01-13T07:48:50.219Z,10.50
2023-01-13T07:51:17.656Z,11.30
2023-01-13T07:53:44.554Z,9.90
2023-01-13T07:56:11.387Z,9.30
2023-01-13T07:58:38.436Z,9.70
2023-01-13T08:01:14.502Z,8.00
2023-01-13T08:03:41.672Z,9.40
2023-01-13T08:06:09.958Z,10.20
2023-01-13T08:08:37.161Z,7.90
2023-01-13T08:11:05.932Z,8.90
2023-01-13T08:13:33.092Z,10.00
2023-01-13T08:16:06.891Z,7.80
2023-01-13T08:18:35.008Z,7.00
2023-01-13T08:21:04.893Z,6.40
2023-01-13T08:23:31.790Z,6.80
2023-01-13T08:26:03.233Z,12.00
2023-01-13T08:28:30.115Z,6.70
2023-01-13T08:31:03.178Z,10.90
2023-01-13T08:33:30.295Z,6.80
2023-01-13T08:35:57.711Z,6.30
2023-01-13T08:38:25.017Z,8.90
2023-01-13T08:40:51.945Z,7.50
2023-01-13T08:43:18.832Z,10.60
2023-01-13T08:45:45.821Z,7.40
2023-01-13T08:48:12.699Z,7.30
2023-01-13T08:50:39.655Z,16.60
2023-01-13T08:53:06.572Z,9.10
2023-01-13T08:55:33.406Z,7.70
2023-01-13T08:58:14.539Z,9.00
2023-01-13T09:00:42.868Z,7.70
2023-01-13T09:03:09.824Z,7.20
2023-01-13T09:05:36.763Z,6.70
2023-01-13T09:08:03.648Z,6.60
2023-01-13T09:10:33.108Z,6.30
2023-01-13T09:13:11.882Z,8.40
2023-01-13T09:15:44.295Z,7.80
2023-01-13T09:18:12.424Z,5.40
2023-01-13T09:20:39.687Z,6.50
2023-01-13T09:23:10.006Z,5.50
2023-01-13T09:25:37.906Z,4.90
2023-01-13T09:28:05.299Z,6.00
2023-01-13T09:30:32.440Z,5.30
2023-01-13T09:33:22.965Z,7.30
2023-01-13T09:35:49.778Z,6.40
2023-01-13T09:38:16.629Z,8.20
2023-01-13T09:40:44.176Z,11.40
2023-01-13T09:43:55.895Z,6.30
2023-01-13T09:46:47.662Z,5.20
2023-01-13T09:49:34.849Z,6.90
2023-01-13T09:52:14.101Z,7.20
2023-01-13T09:54:43.020Z,5.10
2023-01-13T09:57:14.802Z,4.80
2023-01-13T09:59:42.627Z,4.40
2023-01-13T10:02:41.490Z,5.30
2023-01-13T10:05:45.122Z,6.00
2023-01-13T10:08:15.797Z,6.60
2023-01-13T10:10:42.671Z,5.70
2023-01-13T10:13:16.649Z,5.10
2023-01-13T10:15:50.046Z,7.40
2023-01-13T10:18:39.836Z,7.90
2023-01-13T10:21:09.656Z,7.10
2023-01-13T10:24:07.424Z,8.00
2023-01-13T10:26:52.196Z,6.30
2023-01-13T10:29:22.353Z,7.20
2023-01-13T10:31:49.136Z,7.80
2023-01-13T10:34:17.232Z,4.30
2023-01-13T10:37:05.206Z,8.30
2023-01-13T10:39:46.017Z,2.90
2023-01-13T10:42:18.844Z,3.30
2023-01-13T10:44:54.548Z,9.50
2023-01-13T10:47:32.402Z,4.00
2023-01-13T10:50:02.773Z,4.00
2023-01-13T10:52:32.272Z,4.70
2023-01-13T10:54:59.131Z,4.20
2023-01-13T10:57:27.804Z,6.10
2023-01-13T10:59:55.839Z,5.40
2023-01-13T11:02:33.849Z,4.80
2023-01-13T11:05:18.530Z,6.60
2023-01-13T11:07:52.632Z,6.90
2023-01-13T11:10:19.474Z,11.40
2023-01-13T11:13:10.284Z,7.30
2023-01-13T11:15:43.050Z,5.10
2023-01-13T11:19:13.018Z,5.30
2023-01-13T11:22:09.672Z,5.00
2023-01-13T11:24:40.171Z,5.30
2023-01-13T11:27:19.254Z,6.00
2023-01-13T11:29:58.036Z,5.50
2023-01-13T11:32:25.782Z,5.10
2023-01-13T11:35:00.851Z,4.30
2023-01-13T11:37:33.960Z,5.30
2023-01-13T11:40:12.824Z,5.80
2023-01-13T11:42:56.473Z,4.90
2023-01-13T11:45:45.556Z,5.60
2023-01-13T11:48:16.210Z,5.00
2023-01-13T11:50:58.489Z,5.10
2023-01-13T11:53:28.476Z,4.90
2023-01-13T11:56:20.220Z,6.50
2023-01-13T11:59:17.865Z,6.20
2023-01-13T12:02:06.018Z,4.40
2023-01-13T12:04:53.484Z,5.30
2023-01-13T12:07:35.272Z,5.10
2023-01-13T12:10:32.098Z,4.90
2023-01-13T12:13:41.036Z,6.10
2023-01-13T12:16:30.790Z,7.10
2023-01-13T12:19:22.034Z,5.20
2023-01-13T12:21:57.273Z,5.50
2023-01-13T12:24:32.843Z,5.90
2023-01-13T12:27:25.825Z,5.30
2023-01-13T12:29:58.397Z,7.90
2023-01-13T12:32:40.341Z,6.50
2023-01-13T12:35:28.863Z,5.50
2023-01-13T12:38:09.909Z,9.20
2023-01-13T12:40:43.931Z,8.50
2023-01-13T12:43:41.073Z,9.30
2023-01-13T12:46:21.251Z,5.80
2023-01-13T12:48:57.095Z,4.70
2023-01-13T12:51:24.004Z,6.10
2023-01-13T12:53:51.548Z,7.30
2023-01-13T12:56:42.146Z,9.70
2023-01-13T12:59:21.436Z,9.10
2023-01-13T13:02:12.771Z,15.30
2023-01-13T13:04:43.900Z,6.50
2023-01-13T13:07:16.984Z,6.10
2023-01-13T13:09:49.800Z,5.30
2023-01-13T13:12:53.458Z,4.50
2023-01-13T13:15:22.998Z,6.80
2023-01-13T13:18:08.818Z,6.40
2023-01-13T13:21:04.411Z,5.30
2023-01-13T13:23:44.606Z,5.20
2023-01-13T13:26:31.763Z,7.50
2023-01-13T13:29:17.269Z,6.20
2023-01-13T13:32:31.986Z,5.90
2023-01-13T13:35:13.678Z,5.50
2023-01-13T13:38:19.187Z,7.60
2023-01-13T13:41:06.519Z,7.90
2023-01-13T13:43:59.153Z,5.40
2023-01-13T13:46:47.565Z,5.90
2023-01-13T13:49:15.054Z,10.40
2023-01-13T13:52:00.842Z,6.30
2023-01-13T13:54:28.329Z,7.80
2023-01-13T13:56:55.339Z,12.00
2023-01-13T13:59:28.108Z,6.70
2023-01-13T14:02:04.107Z,8.20
2023-01-13T14:04:36.009Z,5.90
2023-01-13T14:07:18.152Z,4.90
2023-01-13T14:09:48.311Z,6.10
2023-01-13T14:12:23.690Z,6.40
2023-01-13T14:14:52.024Z,7.40
2023-01-13T14:17:25.411Z,4.00
2023-01-13T14:20:12.287Z,5.90
2023-01-13T14:22:39.296Z,6.10
2023-01-13T14:33:46.370Z,6.40
2023-01-13T14:36:23.915Z,9.10
2023-01-13T14:39:06.047Z,12.50
2023-01-13T14:41:38.339Z,9.80
2023-01-13T14:45:19.321Z,10.50
2023-01-13T14:48:14.538Z,10.40
2023-01-13T14:50:53.239Z,10.40
2023-01-13T14:54:06.077Z,10.80
2023-01-13T14:57:12.657Z,13.20
2023-01-13T14:59:58.974Z,11.30
2023-01-13T15:02:50.882Z,11.20
2023-01-13T15:05:44.811Z,17.60
2023-01-13T15:08:48.647Z,15.20
2023-01-13T15:11:46.952Z,9.40
2023-01-13T15:14:41.604Z,15.80
2023-01-13T15:17:35.412Z,14.40
2023-01-13T15:20:03.417Z,8.80
2023-01-13T15:22:30.576Z,10.50
2023-01-13T15:24:57.512Z,15.80
2023-01-13T15:54:41.326Z,15.70
2023-01-13T15:57:25.074Z,14.30
2023-01-13T15:59:55.283Z,15.00
2023-01-13T16:02:49.017Z,15.10
2023-01-13T16:05:18.574Z,10.80
2023-01-13T16:07:46.243Z,13.50
2023-01-13T16:17:19.491Z,14.60
2023-01-13T16:19:47.835Z,14.70
2023-01-13T16:22:59.122Z,15.00
2023-01-13T16:25:35.579Z,15.50
2023-01-13T16:28:37.322Z,14.40
2023-01-13T16:31:46.926Z,12.50
2023-01-13T16:34:28.580Z,14.40
2023-01-13T16:37:12.383Z,13.90
2023-01-13T16:40:09.943Z,17.10
2023-01-13T16:42:53.485Z,19.90
2023-01-13T16:45:45.290Z,18.70
2023-01-13T16:48:42.094Z,16.50
2023-01-13T17:24:15.471Z,18.70
2023-01-13T17:26:48.033Z,20.80
2023-01-13T17:29:18.382Z,21.90
2023-01-13T17:31:45.582Z,18.60
2023-01-13T17:34:12.909Z,18.40
2023-01-13T17:36:45.532Z,21.00
